Time;durP1;ratioP1;P1;durP2;ratioP2;P2;SDS_P1;SDS_P2;PMS_P1;PMS_P2;Temp;Humidity;BMP_temperature;BMP_pressure;BME280_temperature;BME280_humidity;BME280_pressure;Samples;Min_cycle;Max_cycle;Signal;HPM_P1;HPM_P2
2022/09/15 00:00:37;;;;;;;4.65;2.45;;;;;;;17.86;77.75;94445.03;;;;
2022/09/15 00:01:37;;;;;;;4.65;2.45;;;;;;;17.86;77.75;94445.03;;;;
2022/09/15 00:02:38;;;;;;;4.65;2.45;;;;;;;17.86;77.75;94445.03;;;;
2022/09/15 00:03:38;;;;;;;4.65;2.45;;;;;;;17.86;77.75;94445.03;;;;
2022/09/15 00:04:40;;;;;;;4.65;2.45;;;;;;;17.86;77.75;94445.03;;;;
2022/09/15 00:05:40;;;;;;;4.65;2.45;;;;;;;17.86;77.75;94445.03;;;;
2022/09/15 00:06:41;;;;;;;4.65;2.45;;;;;;;17.86;77.75;94445.03;;;;
2022/09/15 00:07:41;;;;;;;4.65;2.45;;;;;;;17.86;77.75;94445.03;;;;
2022/09/15 00:08:42;;;;;;;4.65;2.45;;;;;;;17.86;77.75;94445.03;;;;
2022/09/15 00:09:43;;;;;;;4.65;2.45;;;;;;;17.86;77.75;94445.03;;;;
2022/09/15 00:10:44;;;;;;;4.65;2.45;;;;;;;17.86;77.75;94445.03;;;;
2022/09/15 00:11:47;;;;;;;2.85;2.4;;;;;;;17.77;77.81348;94446.55;;;;
2022/09/15 00:12:48;;;;;;;2.85;2.4;;;;;;;17.77;77.81348;94446.55;;;;
2022/09/15 00:13:48;;;;;;;2.85;2.4;;;;;;;17.77;77.81348;94446.55;;;;
2022/09/15 00:14:50;;;;;;;2.85;2.4;;;;;;;17.77;77.81348;94446.55;;;;
2022/09/15 00:15:51;;;;;;;2.85;2.4;;;;;;;17.77;77.81348;94446.55;;;;
2022/09/15 00:16:52;;;;;;;2.85;2.4;;;;;;;17.77;77.81348;94446.55;;;;
2022/09/15 00:17:52;;;;;;;2.85;2.4;;;;;;;17.77;77.81348;94446.55;;;;
2022/09/15 00:18:53;;;;;;;2.85;2.4;;;;;;;17.77;77.81348;94446.55;;;;
2022/09/15 00:19:54;;;;;;;2.85;2.4;;;;;;;17.77;77.81348;94446.55;;;;
2022/09/15 00:20:55;;;;;;;2.85;2.4;;;;;;;17.77;77.81348;94446.55;;;;
2022/09/15 00:21:56;;;;;;;3.8;2.45;;;;;;;17.74;78.06738;94439.61;;;;
2022/09/15 00:22:56;;;;;;;3.8;2.45;;;;;;;17.74;78.06738;94439.61;;;;
2022/09/15 00:23:57;;;;;;;3.8;2.45;;;;;;;17.74;78.06738;94439.61;;;;
2022/09/15 00:24:59;;;;;;;3.8;2.45;;;;;;;17.74;78.06738;94439.61;;;;
2022/09/15 00:25:59;;;;;;;3.8;2.45;;;;;;;17.74;78.06738;94439.61;;;;
2022/09/15 00:27:00;;;;;;;3.8;2.45;;;;;;;17.74;78.06738;94439.61;;;;
2022/09/15 00:28:01;;;;;;;3.8;2.45;;;;;;;17.74;78.06738;94439.61;;;;
2022/09/15 00:29:01;;;;;;;3.8;2.45;;;;;;;17.74;78.06738;94439.61;;;;
2022/09/15 00:30:03;;;;;;;3.8;2.45;;;;;;;17.74;78.06738;94439.61;;;;
2022/09/15 00:31:05;;;;;;;3.8;2.45;;;;;;;17.74;78.06738;94439.61;;;;
2022/09/15 00:32:09;;;;;;;3.8;2.45;;;;;;;17.74;78.06738;94439.61;;;;
2022/09/15 00:33:09;;;;;;;3.1;2.4;;;;;;;17.61;78.32031;94415.63;;;;
2022/09/15 00:34:11;;;;;;;3.1;2.4;;;;;;;17.61;78.32031;94415.63;;;;
2022/09/15 00:35:12;;;;;;;3.1;2.4;;;;;;;17.61;78.32031;94415.63;;;;
2022/09/15 00:36:13;;;;;;;3.1;2.4;;;;;;;17.61;78.32031;94415.63;;;;
2022/09/15 00:37:14;;;;;;;3.1;2.4;;;;;;;17.61;78.32031;94415.63;;;;
2022/09/15 00:38:15;;;;;;;3.1;2.4;;;;;;;17.61;78.32031;94415.63;;;;
2022/09/15 00:39:17;;;;;;;3.1;2.4;;;;;;;17.61;78.32031;94415.63;;;;
2022/09/15 00:40:17;;;;;;;3.1;2.4;;;;;;;17.61;78.32031;94415.63;;;;
2022/09/15 00:41:18;;;;;;;3.1;2.4;;;;;;;17.61;78.32031;94415.63;;;;
2022/09/15 00:42:20;;;;;;;3.1;2.4;;;;;;;17.61;78.32031;94415.63;;;;
2022/09/15 00:43:21;;;;;;;3.7;2.2;;;;;;;17.66;78.4707;94410.27;;;;
2022/09/15 00:44:53;;;;;;;3.7;2.2;;;;;;;17.66;78.4707;94410.27;;;;
2022/09/15 00:45:56;;;;;;;3.7;2.2;;;;;;;17.66;78.4707;94410.27;;;;
2022/09/15 00:46:56;;;;;;;3.7;2.2;;;;;;;17.66;78.4707;94410.27;;;;
2022/09/15 00:47:57;;;;;;;3.7;2.2;;;;;;;17.66;78.4707;94410.27;;;;
2022/09/15 00:48:57;;;;;;;3.7;2.2;;;;;;;17.66;78.4707;94410.27;;;;
2022/09/15 00:50:02;;;;;;;3.7;2.2;;;;;;;17.66;78.4707;94410.27;;;;
2022/09/15 00:51:06;;;;;;;3.7;2.2;;;;;;;17.66;78.4707;94410.27;;;;
2022/09/15 00:52:09;;;;;;;3.7;2.2;;;;;;;17.66;78.4707;94410.27;;;;
2022/09/15 00:53:13;;;;;;;3.7;2.2;;;;;;;17.66;78.4707;94410.27;;;;
2022/09/15 00:54:16;;;;;;;2.95;2.3;;;;;;;17.7;78.21582;94403.27;;;;
2022/09/15 00:55:21;;;;;;;2.95;2.3;;;;;;;17.7;78.21582;94403.27;;;;
2022/09/15 00:56:27;;;;;;;2.95;2.3;;;;;;;17.7;78.21582;94403.27;;;;
2022/09/15 00:57:29;;;;;;;2.95;2.3;;;;;;;17.7;78.21582;94403.27;;;;
2022/09/15 00:58:38;;;;;;;2.95;2.3;;;;;;;17.7;78.21582;94403.27;;;;
2022/09/15 00:59:45;;;;;;;2.95;2.3;;;;;;;17.7;78.21582;94403.27;;;;
2022/09/15 01:00:47;;;;;;;2.95;2.3;;;;;;;17.7;78.21582;94403.27;;;;
2022/09/15 01:01:52;;;;;;;2.95;2.3;;;;;;;17.7;78.21582;94403.27;;;;
2022/09/15 01:02:59;;;;;;;2.95;2.3;;;;;;;17.7;78.21582;94403.27;;;;
2022/09/15 01:04:01;;;;;;;2.95;2.3;;;;;;;17.7;78.21582;94403.27;;;;
2022/09/15 01:05:02;;;;;;;3.95;2.6;;;;;;;17.68;78.40918;94393.41;;;;
2022/09/15 01:06:07;;;;;;;3.95;2.6;;;;;;;17.68;78.40918;94393.41;;;;
2022/09/15 01:07:13;;;;;;;3.95;2.6;;;;;;;17.68;78.40918;94393.41;;;;
2022/09/15 01:08:20;;;;;;;3.95;2.6;;;;;;;17.68;78.40918;94393.41;;;;
2022/09/15 01:09:27;;;;;;;3.95;2.6;;;;;;;17.68;78.40918;94393.41;;;;
2022/09/15 01:10:32;;;;;;;3.95;2.6;;;;;;;17.68;78.40918;94393.41;;;;
2022/09/15 01:11:34;;;;;;;3.95;2.6;;;;;;;17.68;78.40918;94393.41;;;;
2022/09/15 01:12:35;;;;;;;3.95;2.6;;;;;;;17.68;78.40918;94393.41;;;;
2022/09/15 01:13:36;;;;;;;3.95;2.6;;;;;;;17.68;78.40918;94393.41;;;;
2022/09/15 01:14:36;;;;;;;3.95;2.6;;;;;;;17.68;78.40918;94393.41;;;;
2022/09/15 01:15:37;;;;;;;3;2.15;;;;;;;17.62;78.49609;94390.64;;;;
2022/09/15 01:16:47;;;;;;;3;2.15;;;;;;;17.62;78.49609;94390.64;;;;
2022/09/15 01:17:55;;;;;;;3;2.15;;;;;;;17.62;78.49609;94390.64;;;;
2022/09/15 01:19:09;;;;;;;3;2.15;;;;;;;17.62;78.49609;94390.64;;;;
2022/09/15 01:20:28;;;;;;;3;2.15;;;;;;;17.62;78.49609;94390.64;;;;
2022/09/15 01:22:13;;;;;;;3;2.15;;;;;;;17.62;78.49609;94390.64;;;;
2022/09/15 01:23:28;;;;;;;3;2.15;;;;;;;17.62;78.49609;94390.64;;;;
2022/09/15 01:24:44;;;;;;;3;2.15;;;;;;;17.62;78.49609;94390.64;;;;
2022/09/15 01:25:58;;;;;;;3.7;2.25;;;;;;;17.65;78.5791;94384.59;;;;
2022/09/15 01:27:17;;;;;;;3.7;2.25;;;;;;;17.65;78.5791;94384.59;;;;
2022/09/15 01:28:54;;;;;;;3.7;2.25;;;;;;;17.65;78.5791;94384.59;;;;
2022/09/15 01:30:21;;;;;;;3.7;2.25;;;;;;;17.65;78.5791;94384.59;;;;
2022/09/15 01:31:22;;;;;;;3.7;2.25;;;;;;;17.65;78.5791;94384.59;;;;
2022/09/15 01:33:33;;;;;;;3.7;2.25;;;;;;;17.65;78.5791;94384.59;;;;
2022/09/15 01:34:40;;;;;;;3.7;2.25;;;;;;;17.65;78.5791;94384.59;;;;
2022/09/15 01:35:47;;;;;;;3.7;2.25;;;;;;;17.65;78.5791;94384.59;;;;
2022/09/15 01:36:55;;;;;;;2.6;2.2;;;;;;;17.63;78.53027;94377;;;;
2022/09/15 01:38:01;;;;;;;2.6;2.2;;;;;;;17.63;78.53027;94377;;;;
2022/09/15 01:39:08;;;;;;;2.6;2.2;;;;;;;17.63;78.53027;94377;;;;
2022/09/15 01:40:15;;;;;;;2.6;2.2;;;;;;;17.63;78.53027;94377;;;;
2022/09/15 01:41:17;;;;;;;2.6;2.2;;;;;;;17.63;78.53027;94377;;;;
2022/09/15 01:42:24;;;;;;;2.6;2.2;;;;;;;17.63;78.53027;94377;;;;
2022/09/15 01:43:28;;;;;;;2.6;2.2;;;;;;;17.63;78.53027;94377;;;;
2022/09/15 01:44:32;;;;;;;2.6;2.2;;;;;;;17.63;78.53027;94377;;;;
2022/09/15 01:45:37;;;;;;;2.6;2.2;;;;;;;17.63;78.53027;94377;;;;
2022/09/15 01:46:45;;;;;;;2.6;2.2;;;;;;;17.63;78.53027;94377;;;;
2022/09/15 01:47:49;;;;;;;2.45;2.1;;;;;;;17.7;78.56348;94393.13;;;;
2022/09/15 01:48:52;;;;;;;2.45;2.1;;;;;;;17.7;78.56348;94393.13;;;;
2022/09/15 01:49:55;;;;;;;2.45;2.1;;;;;;;17.7;78.56348;94393.13;;;;
2022/09/15 01:51:01;;;;;;;2.45;2.1;;;;;;;17.7;78.56348;94393.13;;;;
2022/09/15 01:52:04;;;;;;;2.45;2.1;;;;;;;17.7;78.56348;94393.13;;;;
2022/09/15 01:53:05;;;;;;;2.45;2.1;;;;;;;17.7;78.56348;94393.13;;;;
2022/09/15 01:54:12;;;;;;;2.45;2.1;;;;;;;17.7;78.56348;94393.13;;;;
2022/09/15 01:55:14;;;;;;;2.45;2.1;;;;;;;17.7;78.56348;94393.13;;;;
2022/09/15 01:56:19;;;;;;;2.45;2.1;;;;;;;17.7;78.56348;94393.13;;;;
2022/09/15 01:57:20;;;;;;;2.45;2.1;;;;;;;17.7;78.56348;94393.13;;;;
2022/09/15 01:58:21;;;;;;;2.6;2.25;;;;;;;17.76;78.44434;94386.27;;;;
2022/09/15 01:59:22;;;;;;;2.6;2.25;;;;;;;17.76;78.44434;94386.27;;;;
2022/09/15 02:00:22;;;;;;;2.6;2.25;;;;;;;17.76;78.44434;94386.27;;;;
2022/09/15 02:01:28;;;;;;;2.6;2.25;;;;;;;17.76;78.44434;94386.27;;;;
2022/09/15 02:02:35;;;;;;;2.6;2.25;;;;;;;17.76;78.44434;94386.27;;;;
2022/09/15 02:03:41;;;;;;;2.6;2.25;;;;;;;17.76;78.44434;94386.27;;;;
2022/09/15 02:04:47;;;;;;;2.6;2.25;;;;;;;17.76;78.44434;94386.27;;;;
2022/09/15 02:05:53;;;;;;;2.6;2.25;;;;;;;17.76;78.44434;94386.27;;;;
2022/09/15 02:06:59;;;;;;;2.6;2.25;;;;;;;17.76;78.44434;94386.27;;;;
2022/09/15 02:08:04;;;;;;;2.6;2.25;;;;;;;17.76;78.44434;94386.27;;;;
2022/09/15 02:09:11;;;;;;;3.45;2.1;;;;;;;17.84;78.18555;94385.14;;;;
2022/09/15 02:10:16;;;;;;;3.45;2.1;;;;;;;17.84;78.18555;94385.14;;;;
2022/09/15 02:11:26;;;;;;;3.45;2.1;;;;;;;17.84;78.18555;94385.14;;;;
2022/09/15 02:12:32;;;;;;;3.45;2.1;;;;;;;17.84;78.18555;94385.14;;;;
2022/09/15 02:13:38;;;;;;;3.45;2.1;;;;;;;17.84;78.18555;94385.14;;;;
2022/09/15 02:14:46;;;;;;;3.45;2.1;;;;;;;17.84;78.18555;94385.14;;;;
2022/09/15 02:15:57;;;;;;;3.45;2.1;;;;;;;17.84;78.18555;94385.14;;;;
2022/09/15 02:17:01;;;;;;;3.45;2.1;;;;;;;17.84;78.18555;94385.14;;;;
2022/09/15 02:18:02;;;;;;;3.45;2.1;;;;;;;17.84;78.18555;94385.14;;;;
2022/09/15 02:19:09;;;;;;;2.75;2.3;;;;;;;17.84;78.03223;94379.8;;;;
2022/09/15 02:20:17;;;;;;;2.75;2.3;;;;;;;17.84;78.03223;94379.8;;;;
2022/09/15 02:21:32;;;;;;;2.75;2.3;;;;;;;17.84;78.03223;94379.8;;;;
2022/09/15 02:22:40;;;;;;;2.75;2.3;;;;;;;17.84;78.03223;94379.8;;;;
2022/09/15 02:23:46;;;;;;;2.75;2.3;;;;;;;17.84;78.03223;94379.8;;;;
2022/09/15 02:24:50;;;;;;;2.75;2.3;;;;;;;17.84;78.03223;94379.8;;;;
2022/09/15 02:25:56;;;;;;;2.75;2.3;;;;;;;17.84;78.03223;94379.8;;;;
2022/09/15 02:27:00;;;;;;;2.75;2.3;;;;;;;17.84;78.03223;94379.8;;;;
2022/09/15 02:28:06;;;;;;;2.75;2.3;;;;;;;17.84;78.03223;94379.8;;;;
2022/09/15 02:29:11;;;;;;;2.75;2.3;;;;;;;17.84;78.03223;94379.8;;;;
2022/09/15 02:30:18;;;;;;;2.75;2.3;;;;;;;17.84;78.03223;94379.8;;;;
2022/09/15 02:31:20;;;;;;;2.75;2.3;;;;;;;17.84;78.03223;94379.8;;;;
2022/09/15 02:32:24;;;;;;;2.75;2.3;;;;;;;17.84;78.03223;94379.8;;;;
2022/09/15 02:33:28;;;;;;;2.75;2.3;;;;;;;17.84;78.03223;94379.8;;;;
2022/09/15 02:34:32;;;;;;;2.75;2.3;;;;;;;17.84;78.03223;94379.8;;;;
2022/09/15 02:35:36;;;;;;;2.75;2.3;;;;;;;17.84;78.03223;94379.8;;;;
2022/09/15 02:36:39;;;;;;;2.75;2.3;;;;;;;17.84;78.03223;94379.8;;;;
2022/09/15 02:37:41;;;;;;;2.75;2.3;;;;;;;17.84;78.03223;94379.8;;;;
2022/09/15 02:38:42;;;;;;;2.75;2.3;;;;;;;17.84;78.03223;94379.8;;;;
2022/09/15 02:39:49;;;;;;;2.75;2.3;;;;;;;17.84;78.03223;94379.8;;;;
2022/09/15 02:40:54;;;;;;;2.75;2.3;;;;;;;17.84;78.03223;94379.8;;;;
2022/09/15 02:41:55;;;;;;;2.75;2.3;;;;;;;17.84;78.03223;94379.8;;;;
2022/09/15 02:42:55;;;;;;;2.75;2.3;;;;;;;17.84;78.03223;94379.8;;;;
2022/09/15 02:43:58;;;;;;;2.75;2.3;;;;;;;17.84;78.03223;94379.8;;;;
2022/09/15 02:44:58;;;;;;;2.75;2.3;;;;;;;17.84;78.03223;94379.8;;;;
2022/09/15 02:46:00;;;;;;;2.75;2.3;;;;;;;17.84;78.03223;94379.8;;;;
2022/09/15 02:47:01;;;;;;;2.75;2.3;;;;;;;17.84;78.03223;94379.8;;;;
2022/09/15 02:48:01;;;;;;;2.75;2.3;;;;;;;17.84;78.03223;94379.8;;;;
2022/09/15 02:49:02;;;;;;;2.75;2.3;;;;;;;17.84;78.03223;94379.8;;;;
2022/09/15 02:50:03;;;;;;;2.75;2.3;;;;;;;17.84;78.03223;94379.8;;;;
2022/09/15 02:51:04;;;;;;;2.85;2.1;;;;;;;17.66;77.84863;94379.11;;;;
2022/09/15 02:52:06;;;;;;;2.85;2.1;;;;;;;17.66;77.84863;94379.11;;;;
2022/09/15 02:53:06;;;;;;;2.85;2.1;;;;;;;17.66;77.84863;94379.11;;;;
2022/09/15 02:54:07;;;;;;;2.85;2.1;;;;;;;17.66;77.84863;94379.11;;;;
2022/09/15 02:55:08;;;;;;;2.85;2.1;;;;;;;17.66;77.84863;94379.11;;;;
2022/09/15 02:56:09;;;;;;;2.85;2.1;;;;;;;17.66;77.84863;94379.11;;;;
2022/09/15 02:57:09;;;;;;;2.85;2.1;;;;;;;17.66;77.84863;94379.11;;;;
2022/09/15 02:58:10;;;;;;;2.85;2.1;;;;;;;17.66;77.84863;94379.11;;;;
2022/09/15 02:59:10;;;;;;;2.85;2.1;;;;;;;17.66;77.84863;94379.11;;;;
2022/09/15 03:00:12;;;;;;;2.85;2.1;;;;;;;17.66;77.84863;94379.11;;;;
2022/09/15 03:01:14;;;;;;;2.85;2.1;;;;;;;17.66;77.84863;94379.11;;;;
2022/09/15 03:02:18;;;;;;;2.85;2.1;;;;;;;17.66;77.84863;94379.11;;;;
2022/09/15 03:03:20;;;;;;;2.85;2.1;;;;;;;17.66;77.84863;94379.11;;;;
2022/09/15 03:04:21;;;;;;;2.85;2.1;;;;;;;17.66;77.84863;94379.11;;;;
2022/09/15 03:05:21;;;;;;;2.85;2.1;;;;;;;17.66;77.84863;94379.11;;;;
2022/09/15 03:06:26;;;;;;;2.85;2.1;;;;;;;17.66;77.84863;94379.11;;;;
2022/09/15 03:07:29;;;;;;;2.85;2.1;;;;;;;17.66;77.84863;94379.11;;;;
2022/09/15 03:08:30;;;;;;;2.85;2.1;;;;;;;17.66;77.84863;94379.11;;;;
2022/09/15 03:09:30;;;;;;;2.85;2.1;;;;;;;17.66;77.84863;94379.11;;;;
2022/09/15 03:10:32;;;;;;;2.85;2.1;;;;;;;17.66;77.84863;94379.11;;;;
2022/09/15 03:11:33;;;;;;;2.85;2.1;;;;;;;17.66;77.84863;94379.11;;;;
2022/09/15 03:12:34;;;;;;;2.75;2.1;;;;;;;17.58;77.71191;94384.64;;;;
2022/09/15 03:13:37;;;;;;;2.75;2.1;;;;;;;17.58;77.71191;94384.64;;;;
2022/09/15 03:14:38;;;;;;;2.75;2.1;;;;;;;17.58;77.71191;94384.64;;;;
2022/09/15 03:15:38;;;;;;;2.75;2.1;;;;;;;17.58;77.71191;94384.64;;;;
2022/09/15 03:16:39;;;;;;;2.75;2.1;;;;;;;17.58;77.71191;94384.64;;;;
2022/09/15 03:17:40;;;;;;;2.75;2.1;;;;;;;17.58;77.71191;94384.64;;;;
2022/09/15 03:18:42;;;;;;;2.75;2.1;;;;;;;17.58;77.71191;94384.64;;;;
2022/09/15 03:19:43;;;;;;;2.75;2.1;;;;;;;17.58;77.71191;94384.64;;;;
2022/09/15 03:20:44;;;;;;;2.75;2.1;;;;;;;17.58;77.71191;94384.64;;;;
2022/09/15 03:21:44;;;;;;;2.75;2.1;;;;;;;17.58;77.71191;94384.64;;;;
2022/09/15 03:22:45;;;;;;;2.75;2.1;;;;;;;17.58;77.71191;94384.64;;;;
2022/09/15 03:23:46;;;;;;;2.5;2.2;;;;;;;17.43;77.65332;94386.99;;;;
2022/09/15 03:24:47;;;;;;;2.5;2.2;;;;;;;17.43;77.65332;94386.99;;;;
2022/09/15 03:25:47;;;;;;;2.5;2.2;;;;;;;17.43;77.65332;94386.99;;;;
2022/09/15 03:26:48;;;;;;;2.5;2.2;;;;;;;17.43;77.65332;94386.99;;;;
2022/09/15 03:27:49;;;;;;;2.5;2.2;;;;;;;17.43;77.65332;94386.99;;;;
2022/09/15 03:28:49;;;;;;;2.5;2.2;;;;;;;17.43;77.65332;94386.99;;;;
2022/09/15 03:29:50;;;;;;;2.5;2.2;;;;;;;17.43;77.65332;94386.99;;;;
2022/09/15 03:30:50;;;;;;;2.5;2.2;;;;;;;17.43;77.65332;94386.99;;;;
2022/09/15 03:31:51;;;;;;;2.5;2.2;;;;;;;17.43;77.65332;94386.99;;;;
2022/09/15 03:32:51;;;;;;;2.5;2.2;;;;;;;17.43;77.65332;94386.99;;;;
2022/09/15 03:33:54;;;;;;;2.5;2.2;;;;;;;17.43;77.65332;94386.99;;;;
2022/09/15 03:34:55;;;;;;;2.5;2.2;;;;;;;17.43;77.65332;94386.99;;;;
2022/09/15 03:35:56;;;;;;;2.5;2.2;;;;;;;17.43;77.65332;94386.99;;;;
2022/09/15 03:36:57;;;;;;;2.5;2.2;;;;;;;17.43;77.65332;94386.99;;;;
2022/09/15 03:37:57;;;;;;;2.5;2.2;;;;;;;17.43;77.65332;94386.99;;;;
2022/09/15 03:38:58;;;;;;;2.5;2.2;;;;;;;17.43;77.65332;94386.99;;;;
2022/09/15 03:39:58;;;;;;;2.5;2.2;;;;;;;17.43;77.65332;94386.99;;;;
2022/09/15 03:41:00;;;;;;;2.5;2.2;;;;;;;17.43;77.65332;94386.99;;;;
2022/09/15 03:42:03;;;;;;;2.5;2.2;;;;;;;17.43;77.65332;94386.99;;;;
2022/09/15 03:43:03;;;;;;;2.5;2.2;;;;;;;17.43;77.65332;94386.99;;;;
2022/09/15 03:44:04;;;;;;;2.5;2.2;;;;;;;17.43;77.65332;94386.99;;;;
2022/09/15 03:45:04;;;;;;;2.85;2.2;;;;;;;17.33;77.69141;94385.14;;;;
2022/09/15 03:46:05;;;;;;;2.85;2.2;;;;;;;17.33;77.69141;94385.14;;;;
2022/09/15 03:47:08;;;;;;;2.85;2.2;;;;;;;17.33;77.69141;94385.14;;;;
2022/09/15 03:48:09;;;;;;;2.85;2.2;;;;;;;17.33;77.69141;94385.14;;;;
2022/09/15 03:49:10;;;;;;;2.85;2.2;;;;;;;17.33;77.69141;94385.14;;;;
2022/09/15 03:50:10;;;;;;;2.85;2.2;;;;;;;17.33;77.69141;94385.14;;;;
2022/09/15 03:51:11;;;;;;;2.85;2.2;;;;;;;17.33;77.69141;94385.14;;;;
2022/09/15 03:52:12;;;;;;;2.85;2.2;;;;;;;17.33;77.69141;94385.14;;;;
2022/09/15 03:53:12;;;;;;;2.85;2.2;;;;;;;17.33;77.69141;94385.14;;;;
2022/09/15 03:54:13;;;;;;;2.85;2.2;;;;;;;17.33;77.69141;94385.14;;;;
2022/09/15 03:55:13;;;;;;;3.4;2.1;;;;;;;17.48;77.59766;94378.83;;;;
2022/09/15 03:56:14;;;;;;;3.4;2.1;;;;;;;17.48;77.59766;94378.83;;;;
2022/09/15 03:57:21;;;;;;;3.4;2.1;;;;;;;17.48;77.59766;94378.83;;;;
2022/09/15 03:58:22;;;;;;;3.4;2.1;;;;;;;17.48;77.59766;94378.83;;;;
2022/09/15 03:59:22;;;;;;;3.4;2.1;;;;;;;17.48;77.59766;94378.83;;;;
2022/09/15 04:00:23;;;;;;;3.4;2.1;;;;;;;17.48;77.59766;94378.83;;;;
2022/09/15 04:01:24;;;;;;;3.4;2.1;;;;;;;17.48;77.59766;94378.83;;;;
2022/09/15 04:02:24;;;;;;;3.4;2.1;;;;;;;17.48;77.59766;94378.83;;;;
2022/09/15 04:03:25;;;;;;;3.4;2.1;;;;;;;17.48;77.59766;94378.83;;;;
2022/09/15 04:04:26;;;;;;;3.4;2.1;;;;;;;17.48;77.59766;94378.83;;;;
2022/09/15 04:05:26;;;;;;;3.4;2.1;;;;;;;17.48;77.59766;94378.83;;;;
2022/09/15 04:06:27;;;;;;;3.35;2;;;;;;;17.64;77.29688;94376.47;;;;
2022/09/15 04:07:28;;;;;;;3.35;2;;;;;;;17.64;77.29688;94376.47;;;;
2022/09/15 04:08:28;;;;;;;3.35;2;;;;;;;17.64;77.29688;94376.47;;;;
2022/09/15 04:09:29;;;;;;;3.35;2;;;;;;;17.64;77.29688;94376.47;;;;
2022/09/15 04:10:29;;;;;;;3.35;2;;;;;;;17.64;77.29688;94376.47;;;;
2022/09/15 04:11:30;;;;;;;3.35;2;;;;;;;17.64;77.29688;94376.47;;;;
2022/09/15 04:12:31;;;;;;;3.35;2;;;;;;;17.64;77.29688;94376.47;;;;
2022/09/15 04:13:32;;;;;;;3.35;2;;;;;;;17.64;77.29688;94376.47;;;;
2022/09/15 04:14:33;;;;;;;3.35;2;;;;;;;17.64;77.29688;94376.47;;;;
2022/09/15 04:15:33;;;;;;;3.35;2;;;;;;;17.64;77.29688;94376.47;;;;
2022/09/15 04:16:34;;;;;;;2.1;1.8;;;;;;;17.83;77.0127;94384.09;;;;
2022/09/15 04:17:34;;;;;;;2.1;1.8;;;;;;;17.83;77.0127;94384.09;;;;
2022/09/15 04:18:35;;;;;;;2.1;1.8;;;;;;;17.83;77.0127;94384.09;;;;
2022/09/15 04:19:35;;;;;;;2.1;1.8;;;;;;;17.83;77.0127;94384.09;;;;
2022/09/15 04:20:36;;;;;;;2.1;1.8;;;;;;;17.83;77.0127;94384.09;;;;
2022/09/15 04:21:37;;;;;;;2.1;1.8;;;;;;;17.83;77.0127;94384.09;;;;
2022/09/15 04:22:38;;;;;;;2.1;1.8;;;;;;;17.83;77.0127;94384.09;;;;
2022/09/15 04:23:39;;;;;;;2.1;1.8;;;;;;;17.83;77.0127;94384.09;;;;
2022/09/15 04:24:41;;;;;;;2.1;1.8;;;;;;;17.83;77.0127;94384.09;;;;
2022/09/15 04:25:41;;;;;;;2.1;1.8;;;;;;;17.83;77.0127;94384.09;;;;
2022/09/15 04:26:41;;;;;;;2.1;1.8;;;;;;;17.83;77.0127;94384.09;;;;
2022/09/15 04:27:42;;;;;;;2.05;1.85;;;;;;;17.87;76.7041;94375.75;;;;
2022/09/15 04:28:43;;;;;;;2.05;1.85;;;;;;;17.87;76.7041;94375.75;;;;
2022/09/15 04:29:43;;;;;;;2.05;1.85;;;;;;;17.87;76.7041;94375.75;;;;
2022/09/15 04:30:44;;;;;;;2.05;1.85;;;;;;;17.87;76.7041;94375.75;;;;
2022/09/15 04:31:45;;;;;;;2.05;1.85;;;;;;;17.87;76.7041;94375.75;;;;
2022/09/15 04:32:45;;;;;;;2.05;1.85;;;;;;;17.87;76.7041;94375.75;;;;
2022/09/15 04:33:46;;;;;;;2.05;1.85;;;;;;;17.87;76.7041;94375.75;;;;
2022/09/15 04:34:50;;;;;;;2.05;1.85;;;;;;;17.87;76.7041;94375.75;;;;
2022/09/15 04:35:50;;;;;;;2.05;1.85;;;;;;;17.87;76.7041;94375.75;;;;
2022/09/15 04:36:57;;;;;;;2.05;1.85;;;;;;;17.87;76.7041;94375.75;;;;
2022/09/15 04:37:58;;;;;;;2;1.8;;;;;;;17.94;76.53125;94372.08;;;;
2022/09/15 04:38:59;;;;;;;2;1.8;;;;;;;17.94;76.53125;94372.08;;;;
2022/09/15 04:40:00;;;;;;;2;1.8;;;;;;;17.94;76.53125;94372.08;;;;
2022/09/15 04:41:01;;;;;;;2;1.8;;;;;;;17.94;76.53125;94372.08;;;;
2022/09/15 04:42:04;;;;;;;2;1.8;;;;;;;17.94;76.53125;94372.08;;;;
2022/09/15 04:43:05;;;;;;;2;1.8;;;;;;;17.94;76.53125;94372.08;;;;
2022/09/15 04:44:06;;;;;;;2;1.8;;;;;;;17.94;76.53125;94372.08;;;;
2022/09/15 04:45:06;;;;;;;2;1.8;;;;;;;17.94;76.53125;94372.08;;;;
2022/09/15 04:46:08;;;;;;;2;1.8;;;;;;;17.94;76.53125;94372.08;;;;
2022/09/15 04:47:09;;;;;;;2;1.8;;;;;;;17.94;76.53125;94372.08;;;;
2022/09/15 04:48:10;;;;;;;2;1.8;;;;;;;17.94;76.53125;94372.08;;;;
2022/09/15 04:49:11;;;;;;;2.15;1.7;;;;;;;17.97;76.22754;94360.97;;;;
2022/09/15 04:50:12;;;;;;;2.15;1.7;;;;;;;17.97;76.22754;94360.97;;;;
2022/09/15 04:51:12;;;;;;;2.15;1.7;;;;;;;17.97;76.22754;94360.97;;;;
2022/09/15 04:52:16;;;;;;;2.15;1.7;;;;;;;17.97;76.22754;94360.97;;;;
2022/09/15 04:53:16;;;;;;;2.15;1.7;;;;;;;17.97;76.22754;94360.97;;;;
2022/09/15 04:54:17;;;;;;;2.15;1.7;;;;;;;17.97;76.22754;94360.97;;;;
2022/09/15 04:55:18;;;;;;;2.15;1.7;;;;;;;17.97;76.22754;94360.97;;;;
2022/09/15 04:56:18;;;;;;;2.15;1.7;;;;;;;17.97;76.22754;94360.97;;;;
2022/09/15 04:57:21;;;;;;;2.15;1.7;;;;;;;17.97;76.22754;94360.97;;;;
2022/09/15 04:58:21;;;;;;;2.15;1.7;;;;;;;17.97;76.22754;94360.97;;;;
2022/09/15 04:59:22;;;;;;;2.5;1.75;;;;;;;18.1;75.86719;94342.94;;;;
2022/09/15 05:00:22;;;;;;;2.5;1.75;;;;;;;18.1;75.86719;94342.94;;;;
2022/09/15 05:01:23;;;;;;;2.5;1.75;;;;;;;18.1;75.86719;94342.94;;;;
2022/09/15 05:02:25;;;;;;;2.5;1.75;;;;;;;18.1;75.86719;94342.94;;;;
2022/09/15 05:03:26;;;;;;;2.5;1.75;;;;;;;18.1;75.86719;94342.94;;;;
2022/09/15 05:04:26;;;;;;;2.5;1.75;;;;;;;18.1;75.86719;94342.94;;;;
2022/09/15 05:05:27;;;;;;;2.5;1.75;;;;;;;18.1;75.86719;94342.94;;;;
2022/09/15 05:06:27;;;;;;;2.5;1.75;;;;;;;18.1;75.86719;94342.94;;;;
2022/09/15 05:07:28;;;;;;;2.5;1.75;;;;;;;18.1;75.86719;94342.94;;;;
2022/09/15 05:08:28;;;;;;;2.5;1.75;;;;;;;18.1;75.86719;94342.94;;;;
2022/09/15 05:09:30;;;;;;;2.5;1.75;;;;;;;18.1;75.86719;94342.94;;;;
2022/09/15 05:10:30;;;;;;;2.5;1.6;;;;;;;18.18;75.48828;94348.49;;;;
2022/09/15 05:11:31;;;;;;;2.5;1.6;;;;;;;18.18;75.48828;94348.49;;;;
2022/09/15 05:12:32;;;;;;;2.5;1.6;;;;;;;18.18;75.48828;94348.49;;;;
2022/09/15 05:13:32;;;;;;;2.5;1.6;;;;;;;18.18;75.48828;94348.49;;;;
2022/09/15 05:14:34;;;;;;;2.5;1.6;;;;;;;18.18;75.48828;94348.49;;;;
2022/09/15 05:15:34;;;;;;;2.5;1.6;;;;;;;18.18;75.48828;94348.49;;;;
2022/09/15 05:16:35;;;;;;;2.5;1.6;;;;;;;18.18;75.48828;94348.49;;;;
2022/09/15 05:17:35;;;;;;;2.5;1.6;;;;;;;18.18;75.48828;94348.49;;;;
2022/09/15 05:18:36;;;;;;;2.5;1.6;;;;;;;18.18;75.48828;94348.49;;;;
2022/09/15 05:19:37;;;;;;;2.5;1.6;;;;;;;18.18;75.48828;94348.49;;;;
2022/09/15 05:20:38;;;;;;;3.5;1.8;;;;;;;18.26;75.15039;94356.44;;;;
2022/09/15 05:21:38;;;;;;;3.5;1.8;;;;;;;18.26;75.15039;94356.44;;;;
2022/09/15 05:22:39;;;;;;;3.5;1.8;;;;;;;18.26;75.15039;94356.44;;;;
2022/09/15 05:23:39;;;;;;;3.5;1.8;;;;;;;18.26;75.15039;94356.44;;;;
2022/09/15 05:24:41;;;;;;;3.5;1.8;;;;;;;18.26;75.15039;94356.44;;;;
2022/09/15 05:25:41;;;;;;;3.5;1.8;;;;;;;18.26;75.15039;94356.44;;;;
2022/09/15 05:26:42;;;;;;;3.5;1.8;;;;;;;18.26;75.15039;94356.44;;;;
2022/09/15 05:27:42;;;;;;;3.5;1.8;;;;;;;18.26;75.15039;94356.44;;;;
2022/09/15 05:28:43;;;;;;;3.5;1.8;;;;;;;18.26;75.15039;94356.44;;;;
2022/09/15 05:29:44;;;;;;;3.5;1.8;;;;;;;18.26;75.15039;94356.44;;;;
2022/09/15 05:30:44;;;;;;;3.5;1.8;;;;;;;18.26;75.15039;94356.44;;;;
2022/09/15 05:31:45;;;;;;;1.9;1.5;;;;;;;18.23;74.80762;94357.81;;;;
2022/09/15 05:32:45;;;;;;;1.9;1.5;;;;;;;18.23;74.80762;94357.81;;;;
2022/09/15 05:33:46;;;;;;;1.9;1.5;;;;;;;18.23;74.80762;94357.81;;;;
2022/09/15 05:34:49;;;;;;;1.9;1.5;;;;;;;18.23;74.80762;94357.81;;;;
2022/09/15 05:35:49;;;;;;;1.9;1.5;;;;;;;18.23;74.80762;94357.81;;;;
2022/09/15 05:36:51;;;;;;;1.9;1.5;;;;;;;18.23;74.80762;94357.81;;;;
2022/09/15 05:37:51;;;;;;;1.9;1.5;;;;;;;18.23;74.80762;94357.81;;;;
2022/09/15 05:38:52;;;;;;;1.9;1.5;;;;;;;18.23;74.80762;94357.81;;;;
2022/09/15 05:39:53;;;;;;;1.9;1.5;;;;;;;18.23;74.80762;94357.81;;;;
2022/09/15 05:40:53;;;;;;;1.9;1.5;;;;;;;18.23;74.80762;94357.81;;;;
2022/09/15 05:41:54;;;;;;;1.9;1.65;;;;;;;18.23;74.89258;94361.95;;;;
2022/09/15 05:42:54;;;;;;;1.9;1.65;;;;;;;18.23;74.89258;94361.95;;;;
2022/09/15 05:43:55;;;;;;;1.9;1.65;;;;;;;18.23;74.89258;94361.95;;;;
2022/09/15 05:44:57;;;;;;;1.9;1.65;;;;;;;18.23;74.89258;94361.95;;;;
2022/09/15 05:45:58;;;;;;;1.9;1.65;;;;;;;18.23;74.89258;94361.95;;;;
2022/09/15 05:46:58;;;;;;;1.9;1.65;;;;;;;18.23;74.89258;94361.95;;;;
2022/09/15 05:47:59;;;;;;;1.9;1.65;;;;;;;18.23;74.89258;94361.95;;;;
2022/09/15 05:48:59;;;;;;;1.9;1.65;;;;;;;18.23;74.89258;94361.95;;;;
2022/09/15 05:50:00;;;;;;;1.9;1.65;;;;;;;18.23;74.89258;94361.95;;;;
2022/09/15 05:51:00;;;;;;;1.9;1.65;;;;;;;18.23;74.89258;94361.95;;;;
2022/09/15 05:52:03;;;;;;;1.9;1.65;;;;;;;18.23;74.89258;94361.95;;;;
2022/09/15 05:53:03;;;;;;;2.6;1.6;;;;;;;18.22;74.87012;94369.73;;;;
2022/09/15 05:54:04;;;;;;;2.6;1.6;;;;;;;18.22;74.87012;94369.73;;;;
2022/09/15 05:55:05;;;;;;;2.6;1.6;;;;;;;18.22;74.87012;94369.73;;;;
2022/09/15 05:56:06;;;;;;;2.6;1.6;;;;;;;18.22;74.87012;94369.73;;;;
2022/09/15 05:57:10;;;;;;;2.6;1.6;;;;;;;18.22;74.87012;94369.73;;;;
2022/09/15 05:58:11;;;;;;;2.6;1.6;;;;;;;18.22;74.87012;94369.73;;;;
2022/09/15 05:59:12;;;;;;;2.6;1.6;;;;;;;18.22;74.87012;94369.73;;;;
2022/09/15 06:00:12;;;;;;;2.6;1.6;;;;;;;18.22;74.87012;94369.73;;;;
2022/09/15 06:01:13;;;;;;;2.6;1.6;;;;;;;18.22;74.87012;94369.73;;;;
2022/09/15 06:02:16;;;;;;;2.6;1.6;;;;;;;18.22;74.87012;94369.73;;;;
2022/09/15 06:03:16;;;;;;;2.5;1.6;;;;;;;18.49;74.64258;94378.47;;;;
2022/09/15 06:04:17;;;;;;;2.5;1.6;;;;;;;18.49;74.64258;94378.47;;;;
2022/09/15 06:05:17;;;;;;;2.5;1.6;;;;;;;18.49;74.64258;94378.47;;;;